createdAt,value
2023-05-03T00:02:56.528Z,101659.00
2023-05-03T00:13:49.140Z,101669.02
2023-05-03T00:18:10.389Z,101671.26
2023-05-03T00:21:43.026Z,101672.91
2023-05-03T00:25:26.058Z,101680.77
2023-05-03T00:28:52.775Z,101679.02
2023-05-03T00:32:20.052Z,101682.65
2023-05-03T00:35:34.517Z,101684.75
2023-05-03T00:38:37.997Z,101684.98
2023-05-03T00:41:46.214Z,101682.24
2023-05-03T00:45:24.815Z,101682.97
2023-05-03T00:49:14.386Z,101693.73
2023-05-03T00:52:47.577Z,101688.61
2023-05-03T00:56:15.730Z,101690.29
2023-05-03T00:59:40.088Z,101701.30
2023-05-03T01:03:09.768Z,101700.52
2023-05-03T01:06:18.166Z,101697.79
2023-05-03T01:09:41.632Z,101696.13
2023-05-03T01:13:25.546Z,101694.46
2023-05-03T01:16:27.948Z,101687.70
2023-05-03T01:20:09.379Z,101690.12
2023-05-03T01:23:40.992Z,101687.94
2023-05-03T01:27:04.712Z,101693.46
2023-05-03T01:30:12.786Z,101692.58
2023-05-03T01:33:21.572Z,101695.91
2023-05-03T01:37:01.911Z,101691.53
2023-05-03T01:40:36.461Z,101693.16
2023-05-03T01:44:44.750Z,101696.45
2023-05-03T01:48:03.912Z,101698.52
2023-05-03T01:51:41.625Z,101703.91
2023-05-03T01:54:49.081Z,101703.86
2023-05-03T01:58:04.512Z,101700.58
2023-05-03T02:01:25.603Z,101701.19
2023-05-03T02:04:53.418Z,101697.08
2023-05-03T02:08:22.092Z,101699.79
2023-05-03T02:11:52.419Z,101703.73
2023-05-03T02:15:17.613Z,101715.66
2023-05-03T02:19:26.136Z,101718.27
2023-05-03T02:22:17.173Z,101722.91
2023-05-03T02:26:46.960Z,101726.17
2023-05-03T02:30:26.675Z,101730.55
2023-05-03T02:33:33.178Z,101737.25
2023-05-03T02:37:09.376Z,101733.88
2023-05-03T02:44:47.089Z,101732.48
2023-05-03T02:49:05.415Z,101734.86
2023-05-03T02:52:40.082Z,101735.42
2023-05-03T02:56:12.472Z,101736.95
2023-05-03T02:59:51.204Z,101742.73
2023-05-03T03:03:21.223Z,101741.67
2023-05-03T03:07:09.545Z,101742.00
2023-05-03T03:14:08.104Z,101739.92
2023-05-03T03:21:18.456Z,101747.91
2023-05-03T03:24:45.499Z,101746.88
2023-05-03T03:28:14.039Z,101750.10
2023-05-03T03:31:57.095Z,101755.96
2023-05-03T03:35:30.122Z,101758.95
2023-05-03T03:38:42.971Z,101762.38
2023-05-03T03:42:11.129Z,101760.60
2023-05-03T03:46:43.151Z,101761.77
2023-05-03T03:49:53.588Z,101764.39
2023-05-03T04:06:35.770Z,101768.19
2023-05-03T04:10:29.332Z,101768.54
2023-05-03T04:14:07.108Z,101768.14
2023-05-03T04:17:14.690Z,101770.74
2023-05-03T04:21:26.104Z,101771.21
2023-05-03T04:25:40.729Z,101770.71
2023-05-03T04:30:15.099Z,101772.45
2023-05-03T04:44:21.092Z,101772.89
2023-05-03T04:48:04.958Z,101772.06
2023-05-03T04:51:17.096Z,101769.81
2023-05-03T04:54:11.988Z,101770.50
2023-05-03T04:57:22.959Z,101772.95
2023-05-03T05:03:49.537Z,101766.98
2023-05-03T05:06:21.839Z,101765.61
2023-05-03T05:08:58.728Z,101767.44
2023-05-03T05:11:28.301Z,101769.98
2023-05-03T05:14:08.744Z,101769.90
2023-05-03T05:16:36.006Z,101773.13
2023-05-03T05:19:04.516Z,101776.14
2023-05-03T05:21:47.077Z,101773.42
2023-05-03T05:24:35.325Z,101777.08
2023-05-03T05:28:13.520Z,101776.60
2023-05-03T05:31:16.126Z,101776.45
2023-05-03T05:33:55.710Z,101778.13
2023-05-03T05:37:26.644Z,101780.32
2023-05-03T05:40:01.196Z,101777.67
2023-05-03T05:42:30.750Z,101778.25
2023-05-03T05:44:58.998Z,101779.05
2023-05-03T05:47:27.605Z,101770.90
2023-05-03T05:50:16.722Z,101773.00
2023-05-03T05:53:24.569Z,101772.70
2023-05-03T05:55:59.966Z,101771.15
2023-05-03T05:58:29.142Z,101777.26
2023-05-03T06:01:19.567Z,101777.23
2023-05-03T06:03:48.413Z,101772.94
2023-05-03T06:06:25.187Z,101771.21
2023-05-03T06:08:53.797Z,101766.70
2023-05-03T06:11:31.985Z,101767.98
2023-05-03T06:14:09.613Z,101763.10
2023-05-03T06:16:42.431Z,101767.95
2023-05-03T06:19:11.359Z,101768.10
2023-05-03T06:21:43.417Z,101764.33
2023-05-03T06:24:19.558Z,101759.20
2023-05-03T06:26:49.430Z,101754.49
2023-05-03T06:29:18.964Z,101754.21
2023-05-03T06:31:47.078Z,101752.52
2023-05-03T06:34:23.450Z,101752.77
2023-05-03T06:36:57.314Z,101753.14
2023-05-03T06:39:28.019Z,101751.13
2023-05-03T06:42:02.530Z,101747.54
2023-05-03T06:44:53.179Z,101745.50
2023-05-03T06:47:26.820Z,101748.34
2023-05-03T06:49:54.131Z,101748.89
2023-05-03T06:52:22.069Z,101750.00
2023-05-03T06:55:00.813Z,101755.31
2023-05-03T06:57:30.869Z,101754.80
2023-05-03T07:00:00.185Z,101755.24
2023-05-03T07:02:36.830Z,101753.48
2023-05-03T07:05:25.358Z,101750.09
2023-05-03T07:07:53.917Z,101750.11
2023-05-03T07:10:23.614Z,101743.19
2023-05-03T07:12:51.885Z,101743.66
2023-05-03T07:15:19.099Z,101744.02
2023-05-03T07:17:48.557Z,101748.23
2023-05-03T07:20:26.605Z,101744.64
2023-05-03T07:22:54.451Z,101744.52
2023-05-03T07:25:27.934Z,101746.10
2023-05-03T07:28:00.204Z,101744.86
2023-05-03T07:30:33.319Z,101742.56
2023-05-03T07:33:01.525Z,101740.98
2023-05-03T07:35:32.906Z,101740.98
2023-05-03T07:38:00.798Z,101741.24
2023-05-03T07:40:32.731Z,101743.43
2023-05-03T07:43:04.756Z,101738.84
2023-05-03T07:45:34.326Z,101740.05
2023-05-03T07:48:01.595Z,101740.46
2023-05-03T07:50:34.091Z,101745.09
2023-05-03T07:53:03.345Z,101743.97
2023-05-03T07:55:36.430Z,101746.73
2023-05-03T07:58:08.876Z,101743.23
2023-05-03T08:00:39.711Z,101737.54
2023-05-03T08:03:09.194Z,101738.16
2023-05-03T08:05:44.444Z,101735.55
2023-05-03T08:08:13.655Z,101740.14
2023-05-03T08:10:42.902Z,101738.43
2023-05-03T08:13:11.266Z,101741.59
2023-05-03T08:15:40.431Z,101741.91
2023-05-03T08:18:08.569Z,101735.02
2023-05-03T08:20:37.893Z,101735.94
2023-05-03T08:23:09.218Z,101733.83
2023-05-03T08:25:41.732Z,101726.48
2023-05-03T08:28:14.910Z,101729.91
2023-05-03T08:30:42.350Z,101725.87
2023-05-03T08:33:10.481Z,101726.11
2023-05-03T08:35:40.381Z,101722.20
2023-05-03T08:38:08.892Z,101721.91
2023-05-03T08:40:37.080Z,101722.17
2023-05-03T08:43:11.734Z,101718.14
2023-05-03T08:45:40.466Z,101714.18
2023-05-03T08:48:13.553Z,101716.50
2023-05-03T08:50:42.661Z,101715.05
2023-05-03T08:53:11.815Z,101709.02
2023-05-03T08:55:39.090Z,101714.26
2023-05-03T08:58:13.538Z,101714.52
2023-05-03T09:00:45.027Z,101713.45
2023-05-03T09:03:13.499Z,101718.16
2023-05-03T09:05:43.718Z,101715.80
2023-05-03T09:08:14.246Z,101717.47
2023-05-03T09:10:44.569Z,101721.70
2023-05-03T09:13:15.833Z,101720.37
2023-05-03T09:15:59.040Z,101719.61
2023-05-03T09:18:28.090Z,101713.63
2023-05-03T09:21:24.783Z,101712.31
2023-05-03T09:24:03.492Z,101712.13
2023-05-03T09:27:01.782Z,101701.19
2023-05-03T09:29:46.799Z,101697.20
2023-05-03T09:33:21.903Z,101696.66
2023-05-03T09:36:04.349Z,101697.59
2023-05-03T09:38:36.810Z,101692.36
2023-05-03T09:41:10.387Z,101692.08
2023-05-03T09:43:52.173Z,101692.31
2023-05-03T09:46:20.647Z,101690.58
2023-05-03T09:48:55.415Z,101689.67
2023-05-03T09:51:24.092Z,101692.20
2023-05-03T09:53:54.620Z,101692.96
2023-05-03T09:56:26.048Z,101689.27
2023-05-03T09:58:54.231Z,101687.67
2023-05-03T10:01:24.932Z,101681.43
2023-05-03T10:03:54.966Z,101685.88
2023-05-03T10:06:34.261Z,101688.58
2023-05-03T10:09:39.833Z,101680.58
2023-05-03T10:12:08.806Z,101680.20
2023-05-03T10:14:38.137Z,101674.91
2023-05-03T10:17:14.972Z,101674.41
2023-05-03T10:19:56.219Z,101673.55
2023-05-03T10:22:24.649Z,101671.27
2023-05-03T10:25:03.667Z,101675.80
2023-05-03T10:27:46.287Z,101673.41
2023-05-03T10:30:34.299Z,101668.81
2023-05-03T10:33:28.338Z,101670.30
2023-05-03T10:35:56.140Z,101676.25
2023-05-03T10:38:25.713Z,101675.23
2023-05-03T10:40:54.705Z,101679.61
2023-05-03T10:43:29.177Z,101678.11
2023-05-03T10:46:02.649Z,101676.39
2023-05-03T10:48:32.441Z,101671.30
2023-05-03T10:51:45.331Z,101668.50
2023-05-03T10:54:12.896Z,101664.23
2023-05-03T10:56:50.407Z,101656.24
2023-05-03T10:59:17.572Z,101654.83
2023-05-03T11:01:47.180Z,101659.64
2023-05-03T11:04:26.535Z,101656.28
2023-05-03T11:06:56.461Z,101651.29
2023-05-03T11:09:32.640Z,101657.85
2023-05-03T11:12:05.833Z,101655.58
2023-05-03T11:14:36.046Z,101654.91
2023-05-03T11:17:03.622Z,101652.13
2023-05-03T11:19:34.855Z,101651.31
2023-05-03T11:22:02.648Z,101654.36
2023-05-03T11:24:30.648Z,101651.58
2023-05-03T11:27:08.759Z,101650.40
2023-05-03T11:29:48.995Z,101649.33
2023-05-03T11:32:21.233Z,101651.30
2023-05-03T11:34:50.446Z,101647.23
2023-05-03T11:37:27.531Z,101645.12
2023-05-03T11:40:08.474Z,101641.55
2023-05-03T11:42:58.564Z,101643.86
2023-05-03T11:45:32.669Z,101641.36
2023-05-03T11:48:09.829Z,101637.41
2023-05-03T11:50:54.172Z,101632.17
2023-05-03T11:53:23.814Z,101632.84
2023-05-03T11:55:57.672Z,101633.34
2023-05-03T11:58:34.994Z,101631.70
2023-05-03T12:01:03.350Z,101629.12
2023-05-03T12:03:35.788Z,101630.14
2023-05-03T12:06:06.563Z,101630.29
2023-05-03T12:08:42.934Z,101622.23
2023-05-03T12:11:14.421Z,101621.99
2023-05-03T12:13:44.324Z,101616.40
2023-05-03T12:16:19.171Z,101615.10
2023-05-03T12:19:01.671Z,101610.77
2023-05-03T12:21:55.385Z,101609.86
2023-05-03T12:24:39.382Z,101607.72
2023-05-03T12:27:08.587Z,101605.54
2023-05-03T12:29:38.140Z,101600.48
2023-05-03T12:32:07.907Z,101599.71
2023-05-03T12:34:36.946Z,101595.41
2023-05-03T12:37:11.767Z,101594.33
2023-05-03T12:40:01.289Z,101595.23
2023-05-03T12:42:42.831Z,101588.27
2023-05-03T12:45:16.280Z,101586.64
2023-05-03T12:48:10.070Z,101584.15
2023-05-03T12:50:51.884Z,101581.86
2023-05-03T12:53:25.696Z,101575.74
2023-05-03T12:55:58.546Z,101572.66
2023-05-03T12:58:51.639Z,101568.52
2023-05-03T13:02:02.858Z,101568.33
2023-05-03T13:04:42.050Z,101564.93
2023-05-03T13:06:59.340Z,101557.59
2023-05-03T13:09:37.761Z,101552.60
2023-05-03T13:12:20.567Z,101553.70
2023-05-03T13:14:50.647Z,101553.00
2023-05-03T13:17:20.050Z,101551.73
2023-05-03T13:19:52.004Z,101549.78
2023-05-03T13:27:00.115Z,101547.67
2023-05-03T13:30:04.513Z,101547.70
2023-05-03T13:32:34.470Z,101544.00
2023-05-03T13:35:05.485Z,101544.75
2023-05-03T13:37:37.664Z,101537.80
2023-05-03T13:40:10.749Z,101539.45
2023-05-03T13:42:40.575Z,101541.29
2023-05-03T13:45:10.170Z,101541.00
2023-05-03T13:50:11.937Z,101542.52
2023-05-03T13:52:44.096Z,101544.52
2023-05-03T13:55:14.490Z,101544.92
2023-05-03T13:57:43.267Z,101542.43
2023-05-03T14:00:16.098Z,101537.09
2023-05-03T14:02:44.901Z,101535.85
2023-05-03T14:05:14.648Z,101533.73
2023-05-03T14:07:43.921Z,101536.44
2023-05-03T14:10:11.565Z,101532.85
2023-05-03T14:12:39.486Z,101531.48
2023-05-03T14:15:13.648Z,101532.91
2023-05-03T14:17:43.906Z,101532.56
2023-05-03T14:20:12.024Z,101533.51
2023-05-03T14:22:40.019Z,101528.38
2023-05-03T14:25:08.096Z,101526.64
2023-05-03T14:27:36.342Z,101530.98
2023-05-03T14:30:09.025Z,101531.20
2023-05-03T14:32:37.492Z,101526.43
2023-05-03T14:35:07.652Z,101523.29
2023-05-03T14:37:36.272Z,101525.12
2023-05-03T14:40:06.994Z,101523.75
2023-05-03T14:42:34.593Z,101526.13
2023-05-03T14:45:01.858Z,101521.35
2023-05-03T14:47:30.836Z,101519.43
2023-05-03T14:49:58.973Z,101519.46
2023-05-03T14:52:27.871Z,101520.20
2023-05-03T14:54:55.059Z,101515.93
2023-05-03T14:57:23.405Z,101517.74
2023-05-03T14:59:52.381Z,101516.70
2023-05-03T15:02:30.536Z,101516.89
2023-05-03T15:05:00.152Z,101516.55
2023-05-03T15:07:29.132Z,101511.73
2023-05-03T15:09:59.069Z,101512.28
2023-05-03T15:12:27.459Z,101513.38
2023-05-03T15:14:55.318Z,101510.21
2023-05-03T15:17:23.641Z,101510.79
2023-05-03T15:19:52.162Z,101512.25
2023-05-03T15:22:22.346Z,101514.42
2023-05-03T15:24:50.733Z,101514.11
2023-05-03T15:27:18.234Z,101515.02
2023-05-03T15:29:46.276Z,101517.35
2023-05-03T15:32:16.074Z,101515.61
2023-05-03T15:34:44.818Z,101513.86
2023-05-03T15:37:12.595Z,101517.67
2023-05-03T15:39:39.522Z,101515.75
2023-05-03T15:42:09.730Z,101513.48
2023-05-03T15:44:37.964Z,101517.81
2023-05-03T15:47:07.024Z,101517.50
2023-05-03T15:49:35.293Z,101517.38
2023-05-03T15:52:03.234Z,101523.33
2023-05-03T15:54:30.449Z,101523.38
2023-05-03T15:56:58.879Z,101530.75
2023-05-03T15:59:26.333Z,101528.28
2023-05-03T16:01:54.235Z,101532.45
2023-05-03T16:04:21.732Z,101536.43
2023-05-03T16:06:52.442Z,101540.05
2023-05-03T16:09:20.858Z,101539.74
2023-05-03T16:11:48.440Z,101538.20
2023-05-03T16:14:17.046Z,101540.39
2023-05-03T16:16:45.327Z,101539.91
2023-05-03T16:19:13.211Z,101539.77
2023-05-03T16:21:40.134Z,101542.33
2023-05-03T16:24:07.848Z,101541.84
2023-05-03T16:26:36.990Z,101540.30
2023-05-03T16:29:04.488Z,101542.14
2023-05-03T16:31:32.948Z,101547.19
2023-05-03T16:34:04.630Z,101544.91
2023-05-03T16:36:43.297Z,101546.70
2023-05-03T16:39:27.615Z,101550.69
2023-05-03T16:42:28.082Z,101549.48
2023-05-03T16:45:08.568Z,101547.77
2023-05-03T16:47:39.848Z,101549.95
2023-05-03T16:50:09.716Z,101550.53
2023-05-03T16:52:40.840Z,101548.80
2023-05-03T16:55:28.810Z,101548.67
2023-05-03T16:58:01.210Z,101553.00
2023-05-03T17:00:31.289Z,101552.86
2023-05-03T17:03:04.748Z,101554.71
2023-05-03T17:05:34.603Z,101552.64
2023-05-03T17:08:02.844Z,101555.89
2023-05-03T17:10:38.897Z,101556.47
2023-05-03T17:13:35.450Z,101558.83
2023-05-03T17:16:30.877Z,101555.52
2023-05-03T17:19:04.694Z,101559.11
2023-05-03T17:21:36.831Z,101558.98
2023-05-03T17:24:34.677Z,101565.04
2023-05-03T17:27:04.078Z,101570.23
2023-05-03T17:29:35.118Z,101571.70
2023-05-03T17:32:25.416Z,101574.21
2023-05-03T17:34:54.123Z,101575.84
2023-05-03T17:37:30.751Z,101577.45
2023-05-03T17:40:07.849Z,101578.02
2023-05-03T17:43:08.096Z,101578.92
2023-05-03T17:45:57.963Z,101578.94
2023-05-03T17:48:35.404Z,101577.02
2023-05-03T17:51:09.723Z,101575.60
2023-05-03T17:53:37.388Z,101573.13
2023-05-03T17:56:33.442Z,101576.16
2023-05-03T17:59:29.824Z,101572.27
2023-05-03T18:01:58.737Z,101575.48
2023-05-03T18:04:45.160Z,101575.85
2023-05-03T18:07:25.044Z,101575.51
2023-05-03T18:09:54.433Z,101573.55
2023-05-03T18:12:22.976Z,101571.43
2023-05-03T18:14:59.373Z,101571.80
2023-05-03T18:18:08.782Z,101572.88
2023-05-03T18:20:57.901Z,101576.07
2023-05-03T18:24:08.321Z,101575.19
2023-05-03T18:26:47.304Z,101577.83
2023-05-03T18:29:24.066Z,101577.48
2023-05-03T18:31:55.094Z,101580.67
2023-05-03T18:34:37.031Z,101578.02
2023-05-03T18:37:15.054Z,101582.63
2023-05-03T18:39:46.543Z,101578.18
2023-05-03T18:42:19.660Z,101576.59
2023-05-03T18:44:57.176Z,101576.59
2023-05-03T18:47:24.318Z,101576.41
2023-05-03T18:49:53.246Z,101570.91
2023-05-03T18:52:22.563Z,101566.64
2023-05-03T18:54:50.919Z,101568.95
2023-05-03T18:57:20.901Z,101570.17
2023-05-03T19:00:10.174Z,101570.00
2023-05-03T19:02:45.212Z,101573.71
2023-05-03T19:05:14.772Z,101570.34
2023-05-03T19:07:53.608Z,101571.92
2023-05-03T19:10:24.198Z,101568.19
2023-05-03T19:12:53.599Z,101573.86
2023-05-03T19:15:23.268Z,101573.66
2023-05-03T19:17:51.764Z,101573.84
2023-05-03T19:20:22.156Z,101575.42
2023-05-03T19:22:58.883Z,101574.70
2023-05-03T19:25:27.391Z,101571.67
2023-05-03T19:27:56.127Z,101572.91
2023-05-03T19:30:24.883Z,101573.60
2023-05-03T19:32:52.547Z,101568.27
2023-05-03T19:35:23.083Z,101572.52
2023-05-03T19:37:52.848Z,101573.75
2023-05-03T19:40:28.427Z,101571.07
2023-05-03T19:43:04.872Z,101577.80
2023-05-03T19:45:33.011Z,101570.67
2023-05-03T19:48:08.350Z,101577.41
2023-05-03T19:50:49.004Z,101574.91
2023-05-03T19:53:17.670Z,101573.66
2023-05-03T19:55:58.969Z,101575.25
2023-05-03T19:58:29.675Z,101569.56
2023-05-03T20:01:18.283Z,101569.20
2023-05-03T20:03:49.507Z,101571.84
2023-05-03T20:06:17.005Z,101572.36
2023-05-03T20:08:44.128Z,101571.10
2023-05-03T20:11:12.691Z,101570.55
2023-05-03T20:13:57.015Z,101568.59
2023-05-03T20:16:27.732Z,101569.64
2023-05-03T20:18:55.108Z,101568.73
2023-05-03T20:21:31.154Z,101567.45
2023-05-03T20:24:02.418Z,101568.66
2023-05-03T20:26:33.684Z,101565.97
2023-05-03T20:29:09.733Z,101566.83
2023-05-03T20:31:38.793Z,101564.14
2023-05-03T20:34:11.754Z,101566.41
2023-05-03T20:36:40.000Z,101565.14
2023-05-03T20:39:11.314Z,101561.56
2023-05-03T20:41:53.991Z,101563.84
2023-05-03T20:44:21.444Z,101567.54
2023-05-03T20:46:50.335Z,101566.63
2023-05-03T20:49:19.714Z,101571.92
2023-05-03T20:51:50.877Z,101573.86
2023-05-03T20:54:36.302Z,101568.71
2023-05-03T20:57:21.060Z,101562.35
2023-05-03T20:59:48.553Z,101561.84
2023-05-03T21:02:16.470Z,101560.08
2023-05-03T21:04:48.425Z,101558.48
2023-05-03T21:07:21.280Z,101560.63
2023-05-03T21:09:48.664Z,101557.07
2023-05-03T21:12:16.668Z,101556.00
2023-05-03T21:14:44.012Z,101555.45
2023-05-03T21:17:12.685Z,101559.14
2023-05-03T21:19:39.565Z,101554.16
2023-05-03T21:22:09.906Z,101555.02
2023-05-03T21:24:37.521Z,101554.45
2023-05-03T21:27:04.475Z,101549.99
2023-05-03T21:29:35.412Z,101550.85
2023-05-03T21:32:04.723Z,101551.52
2023-05-03T21:34:33.959Z,101554.66
2023-05-03T21:37:00.891Z,101558.35
2023-05-03T21:39:32.836Z,101557.27
2023-05-03T21:42:02.111Z,101553.59
2023-05-03T21:44:31.253Z,101548.49
2023-05-03T21:46:58.851Z,101552.06
2023-05-03T21:49:35.040Z,101549.41
2023-05-03T21:52:24.417Z,101549.58
2023-05-03T21:54:52.329Z,101547.60
2023-05-03T21:57:39.186Z,101548.27
2023-05-03T22:00:16.256Z,101544.34
2023-05-03T22:02:44.821Z,101543.94
2023-05-03T22:05:13.236Z,101543.73
2023-05-03T22:07:40.603Z,101544.77
2023-05-03T22:10:09.248Z,101547.20
2023-05-03T22:12:45.162Z,101544.52
2023-05-03T22:15:13.530Z,101547.52
2023-05-03T22:17:41.409Z,101546.28
2023-05-03T22:20:12.468Z,101541.91
2023-05-03T22:22:40.306Z,101540.34
2023-05-03T22:25:09.704Z,101538.40
2023-05-03T22:27:37.258Z,101541.89
2023-05-03T22:30:08.775Z,101542.20
2023-05-03T22:32:39.152Z,101542.34
2023-05-03T22:35:06.860Z,101545.66
2023-05-03T22:37:34.560Z,101542.77
2023-05-03T22:40:02.350Z,101544.84
2023-05-03T22:42:32.941Z,101541.93
2023-05-03T22:45:00.876Z,101544.92
2023-05-03T22:47:29.777Z,101548.98
2023-05-03T22:49:56.940Z,101543.16
2023-05-03T22:52:25.936Z,101546.69
2023-05-03T22:54:56.564Z,101541.73
2023-05-03T22:57:32.013Z,101544.17
2023-05-03T23:00:00.478Z,101545.92
2023-05-03T23:02:29.852Z,101548.67
2023-05-03T23:04:57.495Z,101550.92
2023-05-03T23:07:26.242Z,101549.31
2023-05-03T23:10:05.260Z,101545.63
2023-05-03T23:12:33.547Z,101542.08
2023-05-03T23:15:01.621Z,101545.08
2023-05-03T23:17:28.981Z,101546.46
2023-05-03T23:20:02.334Z,101546.96
2023-05-03T23:22:30.787Z,101544.61
2023-05-03T23:24:58.714Z,101549.34
2023-05-03T23:27:25.727Z,101544.33
2023-05-03T23:29:53.922Z,101544.99
2023-05-03T23:32:21.518Z,101544.98
2023-05-03T23:34:49.592Z,101547.81
2023-05-03T23:37:18.075Z,101544.77
2023-05-03T23:39:46.496Z,101544.56
2023-05-03T23:42:13.434Z,101534.64
2023-05-03T23:44:54.768Z,101533.00
2023-05-03T23:47:22.887Z,101532.11
2023-05-03T23:49:50.444Z,101529.83
2023-05-03T23:52:19.911Z,101525.90
2023-05-03T23:54:46.928Z,101531.68
2023-05-03T23:57:14.236Z,101529.16
2023-05-03T23:59:41.856Z,101531.60
